createdAt,value
2019-01-30T00:03:10.515Z,22.03
2019-01-30T00:08:13.103Z,22.23
2019-01-30T00:13:15.302Z,24.87
2019-01-30T00:18:17.892Z,22.70
2019-01-30T00:23:20.101Z,21.23
2019-01-30T00:28:23.287Z,26.10
2019-01-30T00:33:26.173Z,21.97
2019-01-30T00:38:28.673Z,29.03
2019-01-30T00:43:31.289Z,26.53
2019-01-30T00:48:33.833Z,26.47
2019-01-30T00:53:36.170Z,26.53
2019-01-30T00:58:38.387Z,28.53
2019-01-30T01:03:40.614Z,28.00
2019-01-30T01:08:42.932Z,29.17
2019-01-30T01:13:45.942Z,28.23
2019-01-30T01:18:48.191Z,27.73
2019-01-30T01:23:50.411Z,34.33
2019-01-30T01:28:52.627Z,29.67
2019-01-30T01:33:55.182Z,28.30
2019-01-30T01:38:58.262Z,24.57
2019-01-30T01:44:00.714Z,24.90
2019-01-30T01:49:04.129Z,23.30
2019-01-30T01:54:06.777Z,25.07
2019-01-30T01:59:09.428Z,25.00
2019-01-30T02:04:11.599Z,31.43
2019-01-30T02:09:14.629Z,28.23
2019-01-30T02:14:17.205Z,30.27
2019-01-30T02:19:20.053Z,32.20
2019-01-30T02:24:22.304Z,33.77
2019-01-30T02:29:24.899Z,30.50
2019-01-30T02:34:27.082Z,28.90
2019-01-30T02:39:29.894Z,29.00
2019-01-30T02:44:32.446Z,22.50
2019-01-30T02:49:34.836Z,24.10
2019-01-30T02:54:37.069Z,22.83
2019-01-30T02:59:39.670Z,25.33
2019-01-30T03:04:42.230Z,22.13
2019-01-30T03:09:45.272Z,24.13
2019-01-30T03:14:47.549Z,25.17
2019-01-30T03:19:49.826Z,22.33
2019-01-30T03:24:52.029Z,27.23
2019-01-30T03:29:54.776Z,21.17
2019-01-30T03:34:57.362Z,24.43
2019-01-30T03:39:59.865Z,24.33
2019-01-30T03:45:02.300Z,18.13
2019-01-30T03:50:25.003Z,24.27
2019-01-30T03:55:28.480Z,24.07
2019-01-30T04:00:30.700Z,23.67
2019-01-30T04:05:33.240Z,21.90
2019-01-30T04:10:36.846Z,27.43
2019-01-30T04:15:39.271Z,20.93
2019-01-30T04:20:41.624Z,27.63
2019-01-30T04:25:44.298Z,21.83
2019-01-30T04:30:46.602Z,25.77
2019-01-30T04:35:48.831Z,22.33
2019-01-30T04:40:51.388Z,19.90
2019-01-30T04:45:54.185Z,22.53
2019-01-30T04:50:56.465Z,23.27
2019-01-30T04:55:59.363Z,20.43
2019-01-30T05:01:01.734Z,21.37
2019-01-30T05:06:04.773Z,20.97
2019-01-30T05:11:06.960Z,18.60
2019-01-30T05:16:09.193Z,20.57
2019-01-30T05:21:12.907Z,18.73
2019-01-30T05:26:15.752Z,23.77
2019-01-30T05:31:18.054Z,22.73
2019-01-30T05:36:20.320Z,19.00
2019-01-30T05:41:23.045Z,19.93
2019-01-30T05:46:25.628Z,20.53
2019-01-30T05:51:28.151Z,18.57
2019-01-30T05:56:30.762Z,20.50
2019-01-30T06:01:33.615Z,18.67
2019-01-30T06:06:35.847Z,17.87
2019-01-30T06:11:38.432Z,18.00
2019-01-30T06:16:40.997Z,18.47
2019-01-30T06:21:43.569Z,20.47
2019-01-30T06:26:46.062Z,18.63
2019-01-30T06:31:49.121Z,23.47
2019-01-30T06:36:51.848Z,21.60
2019-01-30T06:41:54.569Z,19.23
2019-01-30T06:46:57.038Z,18.17
2019-01-30T06:51:59.766Z,25.40
2019-01-30T06:57:02.816Z,17.87
2019-01-30T07:02:05.395Z,21.60
2019-01-30T07:07:07.826Z,20.37
2019-01-30T07:12:10.587Z,19.87
2019-01-30T07:17:14.225Z,20.20
2019-01-30T07:22:16.789Z,18.80
2019-01-30T07:27:19.018Z,22.57
2019-01-30T07:32:22.701Z,21.00
2019-01-30T07:37:25.259Z,15.77
2019-01-30T07:42:28.349Z,18.63
2019-01-30T07:47:31.962Z,19.67
2019-01-30T07:52:37.492Z,21.03
2019-01-30T07:57:40.537Z,19.27
2019-01-30T08:02:52.678Z,24.03
2019-01-30T08:07:47.565Z,21.67
2019-01-30T08:12:50.670Z,25.20
2019-01-30T08:17:53.372Z,25.40
2019-01-30T08:22:56.913Z,25.93
2019-01-30T08:27:59.883Z,23.87
2019-01-30T08:33:05.629Z,24.83
2019-01-30T08:38:07.236Z,27.73
2019-01-30T08:43:09.917Z,28.67
2019-01-30T08:48:12.319Z,27.07
2019-01-30T08:53:16.146Z,28.57
2019-01-30T08:58:19.267Z,21.40
2019-01-30T09:03:22.770Z,27.47
2019-01-30T09:08:25.583Z,27.07
2019-01-30T09:13:28.453Z,23.13
2019-01-30T09:18:31.072Z,29.80
2019-01-30T09:23:33.903Z,26.60
2019-01-30T09:28:36.857Z,21.93
2019-01-30T09:33:39.423Z,26.93
2019-01-30T09:38:41.986Z,25.30
2019-01-30T09:43:46.908Z,25.37
2019-01-30T09:48:49.635Z,20.67
2019-01-30T09:53:52.029Z,24.63
2019-01-30T09:58:55.003Z,20.90
2019-01-30T10:03:57.716Z,19.27
2019-01-30T10:09:00.857Z,19.63
2019-01-30T10:14:03.681Z,20.40
2019-01-30T10:19:06.024Z,21.17
2019-01-30T10:24:08.723Z,15.83
2019-01-30T10:29:11.063Z,16.00
2019-01-30T10:34:13.387Z,18.03
2019-01-30T10:39:15.849Z,23.33
2019-01-30T10:44:18.121Z,15.50
2019-01-30T10:49:20.788Z,15.23
2019-01-30T10:54:23.080Z,16.60
2019-01-30T10:59:26.730Z,16.43
2019-01-30T11:04:29.084Z,18.97
2019-01-30T11:09:33.010Z,14.80
2019-01-30T11:14:35.368Z,18.63
2019-01-30T11:19:37.633Z,14.97
2019-01-30T11:24:40.309Z,13.00
2019-01-30T11:29:42.592Z,16.60
2019-01-30T11:34:45.382Z,15.40
2019-01-30T11:39:47.696Z,15.30
2019-01-30T11:44:50.286Z,14.50
2019-01-30T11:49:53.067Z,19.77
2019-01-30T11:54:55.438Z,14.70
2019-01-30T11:59:57.715Z,13.37
2019-01-30T12:05:00.297Z,16.50
2019-01-30T12:10:03.978Z,15.13
2019-01-30T12:15:11.868Z,14.77
2019-01-30T12:20:14.334Z,16.40
2019-01-30T12:25:17.347Z,17.70
2019-01-30T12:30:22.266Z,16.60
2019-01-30T12:35:25.386Z,13.93
2019-01-30T12:40:28.057Z,18.30
2019-01-30T12:45:32.612Z,18.57
2019-01-30T12:50:35.354Z,16.57
2019-01-30T12:55:37.803Z,15.13
2019-01-30T13:00:41.501Z,18.13
2019-01-30T13:05:44.015Z,24.37
2019-01-30T13:10:47.213Z,24.80
2019-01-30T13:15:49.841Z,21.77
2019-01-30T13:20:52.451Z,22.20
2019-01-30T13:25:54.737Z,18.73
2019-01-30T13:30:57.412Z,20.63
2019-01-30T13:36:00.206Z,19.83
2019-01-30T13:41:02.612Z,23.63
2019-01-30T13:46:05.829Z,22.17
2019-01-30T13:51:11.290Z,31.10
2019-01-30T13:56:14.019Z,21.23
2019-01-30T14:01:17.577Z,31.20
2019-01-30T14:06:20.745Z,25.03
2019-01-30T14:11:23.350Z,26.93
2019-01-30T14:16:26.316Z,23.90
2019-01-30T14:21:28.678Z,26.27
2019-01-30T14:26:30.836Z,30.73
2019-01-30T14:31:33.070Z,30.70
2019-01-30T14:36:35.376Z,30.00
2019-01-30T14:41:38.445Z,27.93
2019-01-30T14:46:41.572Z,31.67
2019-01-30T14:51:44.484Z,28.13
2019-01-30T14:56:46.908Z,29.63
2019-01-30T15:01:49.888Z,30.97
2019-01-30T15:06:52.263Z,28.63
2019-01-30T15:11:54.553Z,32.80
2019-01-30T15:16:57.353Z,30.50
2019-01-30T15:21:59.912Z,27.80
2019-01-30T15:27:02.836Z,29.77
2019-01-30T15:32:05.533Z,29.47
2019-01-30T15:37:07.781Z,24.33
2019-01-30T15:42:10.426Z,25.83
2019-01-30T15:47:13.051Z,24.37
2019-01-30T15:52:15.301Z,26.40
2019-01-30T15:57:17.895Z,25.60
2019-01-30T16:02:20.263Z,23.17
2019-01-30T16:07:22.487Z,24.93
2019-01-30T16:12:25.066Z,27.77
2019-01-30T16:17:27.364Z,27.47
2019-01-30T16:22:29.942Z,22.43
2019-01-30T16:27:32.628Z,20.60
2019-01-30T16:32:34.902Z,20.53
2019-01-30T16:37:38.923Z,18.23
2019-01-30T16:42:41.663Z,20.70
2019-01-30T16:47:44.171Z,21.43
2019-01-30T16:52:46.791Z,23.20
2019-01-30T16:57:52.850Z,18.53
2019-01-30T17:02:55.827Z,20.47
2019-01-30T17:07:58.723Z,23.60
2019-01-30T17:13:01.433Z,22.67
2019-01-30T17:18:05.784Z,16.97
2019-01-30T17:23:08.552Z,18.47
2019-01-30T17:28:11.161Z,22.20
2019-01-30T17:33:14.177Z,26.03
2019-01-30T17:38:16.466Z,20.23
2019-01-30T17:43:18.991Z,24.87
2019-01-30T17:48:21.985Z,21.17
2019-01-30T17:53:24.229Z,23.70
2019-01-30T17:58:26.546Z,21.87
2019-01-30T18:03:29.867Z,24.40
2019-01-30T18:08:32.375Z,25.40
2019-01-30T18:13:35.493Z,23.43
2019-01-30T18:18:38.083Z,25.83
2019-01-30T18:23:40.532Z,26.73
2019-01-30T18:28:43.265Z,24.17
2019-01-30T18:33:45.852Z,27.50
2019-01-30T18:38:48.087Z,26.37
2019-01-30T18:43:50.615Z,28.30
2019-01-30T18:48:52.935Z,28.97
2019-01-30T18:53:55.348Z,28.27
2019-01-30T18:58:58.596Z,29.27
2019-01-30T19:04:01.427Z,31.77
2019-01-30T19:09:09.173Z,30.77
2019-01-30T19:14:12.294Z,32.57
2019-01-30T19:19:14.777Z,29.50
2019-01-30T19:24:19.735Z,38.83
2019-01-30T19:29:21.721Z,34.73
2019-01-30T19:34:23.955Z,33.87
2019-01-30T19:39:26.538Z,37.83
2019-01-30T19:44:29.108Z,43.53
2019-01-30T19:49:31.803Z,37.03
2019-01-30T19:54:35.128Z,41.73
2019-01-30T19:59:37.465Z,40.87
2019-01-30T20:04:40.022Z,40.03
2019-01-30T20:09:44.832Z,38.70
2019-01-30T20:14:47.580Z,39.67
2019-01-30T20:19:49.842Z,44.47
2019-01-30T20:24:52.058Z,43.97
2019-01-30T20:29:54.926Z,41.53
2019-01-30T20:34:57.520Z,45.67
2019-01-30T20:40:00.046Z,44.47
2019-01-30T20:45:03.570Z,46.40
2019-01-30T20:50:10.361Z,47.67
2019-01-30T20:55:13.574Z,43.60
2019-01-30T21:00:20.310Z,63.57
2019-01-30T21:05:22.637Z,47.40
2019-01-30T21:10:34.292Z,47.37
2019-01-30T21:15:36.996Z,45.40
2019-01-30T21:20:39.479Z,45.63
2019-01-30T21:25:41.735Z,54.77
2019-01-30T21:30:44.009Z,54.93
2019-01-30T21:35:46.272Z,48.20
2019-01-30T21:40:48.646Z,49.07
2019-01-30T21:45:51.649Z,52.63
2019-01-30T21:50:54.671Z,51.50
2019-01-30T21:55:57.846Z,51.37
2019-01-30T22:01:01.317Z,52.13
2019-01-30T22:06:03.908Z,55.17
2019-01-30T22:11:06.322Z,57.20
2019-01-30T22:16:08.759Z,52.67
2019-01-30T22:21:11.531Z,61.47
2019-01-30T22:26:14.126Z,54.20
2019-01-30T22:31:16.926Z,54.17
2019-01-30T22:36:19.624Z,53.17
2019-01-30T22:41:22.257Z,56.13
2019-01-30T22:46:24.799Z,57.80
2019-01-30T22:51:27.061Z,51.40
2019-01-30T22:56:30.006Z,55.80
2019-01-30T23:01:47.702Z,55.90
2019-01-30T23:07:35.146Z,57.00
2019-01-30T23:13:19.913Z,57.70
2019-01-30T23:19:14.475Z,59.17
2019-01-30T23:24:40.839Z,57.53
2019-01-30T23:30:37.830Z,60.73
2019-01-30T23:36:29.351Z,57.23
2019-01-30T23:42:12.033Z,62.90
2019-01-30T23:48:13.949Z,55.83
2019-01-30T23:54:12.051Z,62.13
2019-01-30T23:59:59.360Z,58.23
